Terminal Aerodrome Forecast
Issued by NWS

Home | Current Version | Previous Version | Text Only | Print | Product List | Glossary On
Versions: 1 2 3 4 5 6 7 8 9 10 11 12 13 14 15 16 17 18 19 20 21 22 23 24 25
000
FTUS42 KMFL 300522
TAFOPF
TAF
KOPF 300522Z 3006/0106 10007KT P6SM FEW025 SCT250
     FM301400 11012KT P6SM SCT035
     FM301900 11013KT P6SM FEW035=

USA.gov is the U.S. government's official web portal to all federal, state and local government web resources and services.